Time;durP1;ratioP1;P1;durP2;ratioP2;P2;SDS_P1;SDS_P2;PMS_P1;PMS_P2;Temp;Humidity;BMP_temperature;BMP_pressure;BME280_temperature;BME280_humidity;BME280_pressure;Samples;Min_cycle;Max_cycle;Signal;HPM_P1;HPM_P2
2023/09/06 00:01:07;;;;;;;10.57;5.95;;;;;;;;;;5009994;28;20045;-69
2023/09/06 00:03:32;;;;;;;5.60;4.07;;;;;;;;;;5011238;28;20049;-68
2023/09/06 00:05:58;;;;;;;4.18;3.72;;;;;;;;;;5012588;28;20053;-69
2023/09/06 00:08:24;;;;;;;6.70;3.60;;;;;;;;;;5010248;28;20103;-71
2023/09/06 00:10:50;;;;;;;7.63;3.58;;;;;;;;;;5006428;28;20049;-71
2023/09/06 00:13:17;;;;;;;5.50;3.80;;;;;;;;;;5012021;28;20114;-70
2023/09/06 00:15:43;;;;;;;4.32;3.63;;;;;;;;;;5014825;28;20482;-71
2023/09/06 00:18:08;;;;;;;5.25;3.58;;;;;;;;;;5005453;28;20057;-70
2023/09/06 00:20:36;;;;;;;3.97;3.50;;;;;;;;;;5000794;28;20045;-71
2023/09/06 00:23:04;;;;;;;5.13;3.45;;;;;;;;;;5011088;28;20050;-70
2023/09/06 00:25:31;;;;;;;8.02;4.28;;;;;;;;;;5015770;28;20076;-69
2023/09/06 00:27:59;;;;;;;5.65;4.18;;;;;;;;;;5011355;28;20050;-70
2023/09/06 00:30:25;;;;;;;8.50;4.03;;;;;;;;;;4990101;28;20498;-72
2023/09/06 00:32:53;;;;;;;5.75;3.97;;;;;;;;;;5006531;28;20053;-67
2023/09/06 00:35:25;;;;;;;5.35;3.90;;;;;;;;;;5011637;28;20184;-70
2023/09/06 00:37:52;;;;;;;5.65;3.85;;;;;;;;;;4985783;28;20049;-70
2023/09/06 00:40:18;;;;;;;5.68;3.72;;;;;;;;;;4989542;28;20074;-71
2023/09/06 00:42:59;;;;;;;4.43;3.78;;;;;;;;;;5003741;28;20115;-71
2023/09/06 00:45:37;;;;;;;6.47;4.05;;;;;;;;;;5018021;28;20060;-71
2023/09/06 00:48:05;;;;;;;4.85;4.15;;;;;;;;;;5010539;28;20079;-71
2023/09/06 00:50:34;;;;;;;6.10;4.80;;;;;;;;;;5005881;28;20526;-71
2023/09/06 00:53:00;;;;;;;9.88;5.40;;;;;;;;;;5021375;28;20126;-68
2023/09/06 00:55:25;;;;;;;6.18;4.35;;;;;;;;;;5034665;28;20053;-69
2023/09/06 00:57:52;;;;;;;5.50;4.03;;;;;;;;;;5030849;28;20051;-69
2023/09/06 01:00:17;;;;;;;8.57;4.18;;;;;;;;;;5036135;28;20056;-69
2023/09/06 01:02:44;;;;;;;4.57;4.05;;;;;;;;;;5037105;28;20045;-69
2023/09/06 01:05:11;;;;;;;5.38;4.25;;;;;;;;;;5021340;28;20056;-69
2023/09/06 01:07:38;;;;;;;6.70;4.57;;;;;;;;;;5024712;28;20052;-69
2023/09/06 01:10:04;;;;;;;8.15;4.18;;;;;;;;;;5019195;28;20132;-69
2023/09/06 01:12:30;;;;;;;7.25;4.50;;;;;;;;;;5035325;28;20045;-69
2023/09/06 01:14:56;;;;;;;5.28;3.90;;;;;;;;;;5018032;28;20802;-69
2023/09/06 01:17:24;;;;;;;7.50;4.97;;;;;;;;;;5033332;28;20071;-69
2023/09/06 01:19:57;;;;;;;6.82;4.97;;;;;;;;;;5032142;28;20048;-71
2023/09/06 01:22:28;;;;;;;7.35;5.60;;;;;;;;;;5022657;28;20056;-69
2023/09/06 01:24:54;;;;;;;7.78;5.70;;;;;;;;;;5029201;28;20464;-70
2023/09/06 01:27:20;;;;;;;9.00;5.13;;;;;;;;;;5029594;28;20048;-69
2023/09/06 01:29:46;;;;;;;7.43;5.10;;;;;;;;;;5033682;28;20049;-70
2023/09/06 01:32:12;;;;;;;8.07;5.35;;;;;;;;;;5036940;28;20082;-70
2023/09/06 01:34:37;;;;;;;6.40;3.92;;;;;;;;;;5036665;28;20052;-69
2023/09/06 01:37:03;;;;;;;6.93;5.18;;;;;;;;;;5019207;28;20053;-69
2023/09/06 01:39:28;;;;;;;5.80;4.70;;;;;;;;;;5025635;28;20045;-69
2023/09/06 01:41:54;;;;;;;5.22;4.25;;;;;;;;;;5020499;28;20045;-69
2023/09/06 01:44:20;;;;;;;7.85;4.50;;;;;;;;;;5036777;28;20047;-69
2023/09/06 01:46:46;;;;;;;6.43;4.30;;;;;;;;;;5035878;28;20053;-69
2023/09/06 01:49:12;;;;;;;5.75;4.20;;;;;;;;;;5036547;28;20045;-69
2023/09/06 01:51:38;;;;;;;5.95;4.13;;;;;;;;;;5022206;28;20564;-72
2023/09/06 01:54:04;;;;;;;7.40;4.35;;;;;;;;;;5027792;28;20041;-69
2023/09/06 01:56:30;;;;;;;6.63;3.85;;;;;;;;;;5036320;28;20037;-69
2023/09/06 01:58:57;;;;;;;5.22;3.83;;;;;;;;;;5025551;28;20041;-69
2023/09/06 02:01:22;;;;;;;8.07;4.63;;;;;;;;;;5028536;28;20052;-69
2023/09/06 02:03:48;;;;;;;5.70;4.05;;;;;;;;;;5036748;28;20037;-69
2023/09/06 02:06:14;;;;;;;4.95;4.45;;;;;;;;;;5018849;28;20076;-69
2023/09/06 02:08:40;;;;;;;7.45;4.68;;;;;;;;;;5035231;28;20072;-69
2023/09/06 02:11:09;;;;;;;8.35;4.82;;;;;;;;;;5027375;28;20052;-69
2023/09/06 02:13:35;;;;;;;6.00;4.72;;;;;;;;;;5018815;28;20077;-70
2023/09/06 02:16:00;;;;;;;7.97;4.85;;;;;;;;;;5035061;28;20087;-69
2023/09/06 02:18:26;;;;;;;7.72;4.95;;;;;;;;;;5027879;28;20033;-69
2023/09/06 02:20:55;;;;;;;6.82;4.80;;;;;;;;;;5036002;28;20111;-70
2023/09/06 02:23:20;;;;;;;7.32;5.32;;;;;;;;;;5026861;28;20037;-70
2023/09/06 02:25:46;;;;;;;6.85;4.85;;;;;;;;;;5025406;28;20204;-68
2023/09/06 02:28:14;;;;;;;5.47;4.63;;;;;;;;;;5035390;28;20132;-69
2023/09/06 02:30:40;;;;;;;7.40;4.78;;;;;;;;;;5035171;28;20478;-69
2023/09/06 02:33:09;;;;;;;10.52;4.80;;;;;;;;;;5035202;28;20098;-69
2023/09/06 02:35:40;;;;;;;8.43;5.05;;;;;;;;;;5030199;28;20041;-68
2023/09/06 02:38:15;;;;;;;6.30;4.83;;;;;;;;;;5035594;28;20417;-68
2023/09/06 02:40:41;;;;;;;6.75;5.20;;;;;;;;;;5028368;28;20283;-69
2023/09/06 02:43:07;;;;;;;7.50;5.57;;;;;;;;;;5024665;28;20509;-68
2023/09/06 02:45:36;;;;;;;10.80;5.40;;;;;;;;;;5024718;28;20663;-70
2023/09/06 02:48:15;;;;;;;7.55;5.47;;;;;;;;;;5035112;28;20044;-68
2023/09/06 02:50:41;;;;;;;6.88;4.65;;;;;;;;;;5030473;28;20041;-68
2023/09/06 02:53:16;;;;;;;9.32;4.93;;;;;;;;;;5018141;28;20037;-68
2023/09/06 02:55:42;;;;;;;7.25;4.97;;;;;;;;;;5036050;28;20037;-68
2023/09/06 02:58:07;;;;;;;8.82;4.68;;;;;;;;;;5029961;28;20060;-68
2023/09/06 03:00:35;;;;;;;6.45;4.40;;;;;;;;;;5036017;28;20569;-71
2023/09/06 03:03:05;;;;;;;6.78;5.05;;;;;;;;;;5020252;28;20053;-68
2023/09/06 03:05:32;;;;;;;10.57;5.05;;;;;;;;;;5023213;28;20045;-68
2023/09/06 03:07:58;;;;;;;7.38;4.93;;;;;;;;;;5022147;28;20116;-68
2023/09/06 03:10:27;;;;;;;7.10;4.65;;;;;;;;;;5036045;28;20874;-68
2023/09/06 03:12:55;;;;;;;6.85;5.22;;;;;;;;;;5035703;28;20394;-68
2023/09/06 03:15:24;;;;;;;5.07;4.35;;;;;;;;;;5033347;28;20045;-68
2023/09/06 03:17:53;;;;;;;6.32;4.57;;;;;;;;;;5032618;28;20037;-68
2023/09/06 03:20:31;;;;;;;5.82;4.68;;;;;;;;;;5038816;28;20635;-68
2023/09/06 03:23:02;;;;;;;7.57;4.82;;;;;;;;;;5023878;28;20053;-68
2023/09/06 03:25:29;;;;;;;6.03;4.50;;;;;;;;;;5039038;28;20098;-68
2023/09/06 03:28:01;;;;;;;9.68;5.00;;;;;;;;;;5039955;28;20052;-68
2023/09/06 03:30:30;;;;;;;6.22;4.75;;;;;;;;;;5026570;28;20042;-68
2023/09/06 03:32:58;;;;;;;11.82;5.30;;;;;;;;;;5025530;28;20678;-68
2023/09/06 03:35:23;;;;;;;5.53;4.47;;;;;;;;;;5047237;28;20132;-69
2023/09/06 03:37:52;;;;;;;6.78;5.15;;;;;;;;;;5039043;28;20222;-69
2023/09/06 03:40:36;;;;;;;6.80;5.35;;;;;;;;;;5020649;28;20049;-69
2023/09/06 03:43:06;;;;;;;6.50;5.07;;;;;;;;;;5020946;28;20044;-69
2023/09/06 03:45:34;;;;;;;7.88;5.28;;;;;;;;;;5021887;28;20107;-68
2023/09/06 03:48:00;;;;;;;7.95;4.63;;;;;;;;;;5027066;28;20046;-68
2023/09/06 03:50:27;;;;;;;6.30;4.57;;;;;;;;;;5021000;28;20041;-68
2023/09/06 03:52:53;;;;;;;8.27;5.00;;;;;;;;;;5034919;28;20045;-69
2023/09/06 03:55:20;;;;;;;8.60;5.22;;;;;;;;;;5033840;28;20048;-70
2023/09/06 03:57:46;;;;;;;8.73;5.05;;;;;;;;;;5038646;28;20055;-70
2023/09/06 04:00:31;;;;;;;7.97;5.63;;;;;;;;;;5037302;28;20048;-70
2023/09/06 04:03:11;;;;;;;10.73;6.63;;;;;;;;;;5020834;28;20607;-71
2023/09/06 04:05:37;;;;;;;10.05;6.45;;;;;;;;;;5028898;28;20251;-70
2023/09/06 04:08:04;;;;;;;8.48;6.50;;;;;;;;;;5027011;28;20110;-71
2023/09/06 04:10:36;;;;;;;8.82;6.63;;;;;;;;;;5039170;28;20044;-71
2023/09/06 04:13:04;;;;;;;8.75;5.85;;;;;;;;;;5037789;28;20073;-71
2023/09/06 04:15:35;;;;;;;9.30;5.93;;;;;;;;;;5022815;28;20099;-71
2023/09/06 04:18:06;;;;;;;8.13;5.63;;;;;;;;;;5022451;28;20045;-70
2023/09/06 04:20:37;;;;;;;7.35;5.80;;;;;;;;;;5038793;28;20128;-71
2023/09/06 04:23:07;;;;;;;7.87;5.67;;;;;;;;;;5033876;28;20037;-71
2023/09/06 04:25:44;;;;;;;8.48;5.32;;;;;;;;;;5032459;28;20051;-70
2023/09/06 04:28:16;;;;;;;6.18;5.00;;;;;;;;;;5033714;28;20045;-71
2023/09/06 04:30:45;;;;;;;8.32;5.53;;;;;;;;;;5036153;28;20091;-71
2023/09/06 04:33:14;;;;;;;9.48;5.13;;;;;;;;;;5034206;28;20053;-71
2023/09/06 04:35:46;;;;;;;5.93;4.95;;;;;;;;;;5037559;28;20037;-71
2023/09/06 04:38:17;;;;;;;6.07;4.95;;;;;;;;;;5033906;28;20080;-70
2023/09/06 04:40:45;;;;;;;8.60;5.55;;;;;;;;;;5036592;28;20132;-70
2023/09/06 04:43:16;;;;;;;6.75;5.30;;;;;;;;;;5034618;28;20106;-71
2023/09/06 04:45:42;;;;;;;7.75;4.78;;;;;;;;;;5036985;28;20838;-70
2023/09/06 04:48:11;;;;;;;7.93;5.78;;;;;;;;;;5019582;28;20041;-70
2023/09/06 04:50:41;;;;;;;9.20;5.85;;;;;;;;;;5036165;28;20043;-71
2023/09/06 04:53:08;;;;;;;13.57;5.50;;;;;;;;;;5019293;28;20493;-71
2023/09/06 04:55:37;;;;;;;7.38;5.55;;;;;;;;;;5034886;28;20136;-70
2023/09/06 04:58:07;;;;;;;7.60;5.93;;;;;;;;;;5037771;28;21383;-70
2023/09/06 05:00:38;;;;;;;11.82;6.45;;;;;;;;;;5018973;28;20045;-71
2023/09/06 05:03:10;;;;;;;8.55;5.70;;;;;;;;;;5038557;28;20109;-71
2023/09/06 05:05:37;;;;;;;;;;;;;;;;;;5018480;28;20493;-70
2023/09/06 05:08:03;;;;;;;9.35;5.60;;;;;;;;;;5021893;28;19932;-68
2023/09/06 05:10:29;;;;;;;8.75;5.60;;;;;;;;;;5032756;28;20064;-69
2023/09/06 05:12:55;;;;;;;7.25;5.20;;;;;;;;;;5033131;28;20144;-69
2023/09/06 05:15:21;;;;;;;10.32;5.28;;;;;;;;;;5041566;28;20139;-68
2023/09/06 05:17:46;;;;;;;8.48;5.38;;;;;;;;;;5018542;28;20048;-69
2023/09/06 05:20:30;;;;;;;8.38;5.53;;;;;;;;;;5037099;28;20479;-69
2023/09/06 05:23:19;;;;;;;9.18;5.28;;;;;;;;;;5029249;28;20071;-69
2023/09/06 05:25:46;;;;;;;5.90;4.85;;;;;;;;;;5037536;28;20100;-68
2023/09/06 05:28:22;;;;;;;7.50;5.78;;;;;;;;;;5033510;28;20046;-68
2023/09/06 05:30:53;;;;;;;6.45;4.65;;;;;;;;;;5030076;28;20049;-70
2023/09/06 05:33:19;;;;;;;8.40;5.43;;;;;;;;;;5033297;28;20041;-69
2023/09/06 05:35:44;;;;;;;6.60;4.70;;;;;;;;;;5033399;28;20044;-70
2023/09/06 05:38:12;;;;;;;6.03;4.55;;;;;;;;;;5032688;28;20068;-70
2023/09/06 05:40:41;;;;;;;7.00;4.70;;;;;;;;;;5036563;28;20040;-69
2023/09/06 05:43:10;;;;;;;6.47;4.50;;;;;;;;;;5033956;28;20049;-71
2023/09/06 05:45:37;;;;;;;7.65;4.45;;;;;;;;;;5019550;28;20107;-69
2023/09/06 05:48:03;;;;;;;6.07;4.55;;;;;;;;;;5036038;28;20037;-69
2023/09/06 05:50:31;;;;;;;6.78;4.40;;;;;;;;;;5030675;28;20049;-69
2023/09/06 05:52:57;;;;;;;6.05;4.50;;;;;;;;;;5035685;28;20041;-69
2023/09/06 05:55:23;;;;;;;7.03;4.53;;;;;;;;;;5031593;28;20053;-69
2023/09/06 05:57:50;;;;;;;5.78;4.53;;;;;;;;;;5037800;28;20079;-69
2023/09/06 06:00:17;;;;;;;8.43;4.82;;;;;;;;;;5018875;28;20266;-68
2023/09/06 06:02:49;;;;;;;5.53;4.35;;;;;;;;;;5032632;28;20037;-71
2023/09/06 06:05:18;;;;;;;4.65;4.10;;;;;;;;;;5014546;28;20081;-71
2023/09/06 06:07:45;;;;;;;6.10;4.40;;;;;;;;;;5033675;28;20032;-68
2023/09/06 06:10:12;;;;;;;6.43;4.00;;;;;;;;;;5033195;28;20049;-68
2023/09/06 06:12:39;;;;;;;7.68;4.30;;;;;;;;;;5016257;28;20041;-70
2023/09/06 06:15:08;;;;;;;8.02;4.50;;;;;;;;;;5023587;28;20052;-68
2023/09/06 06:17:33;;;;;;;8.32;4.10;;;;;;;;;;5025116;28;20103;-68
2023/09/06 06:19:59;;;;;;;5.43;3.67;;;;;;;;;;5017513;28;20506;-68
2023/09/06 06:22:24;;;;;;;5.25;4.20;;;;;;;;;;5033712;28;20045;-68
2023/09/06 06:24:50;;;;;;;6.35;4.18;;;;;;;;;;5030451;28;20047;-68
2023/09/06 06:27:15;;;;;;;4.30;3.80;;;;;;;;;;5029380;28;20650;-70
2023/09/06 06:29:41;;;;;;;18.65;4.15;;;;;;;;;;5029286;28;20037;-71
2023/09/06 06:32:07;;;;;;;6.78;4.15;;;;;;;;;;5028522;28;20632;-70
2023/09/06 06:34:32;;;;;;;6.55;4.00;;;;;;;;;;5032004;28;20462;-70
2023/09/06 06:36:58;;;;;;;5.25;4.22;;;;;;;;;;5033632;28;20049;-67
2023/09/06 06:39:23;;;;;;;5.90;4.45;;;;;;;;;;5018503;28;20091;-70
2023/09/06 06:41:48;;;;;;;7.90;3.90;;;;;;;;;;5024678;28;20140;-70
2023/09/06 06:44:14;;;;;;;5.53;4.38;;;;;;;;;;5032558;28;20046;-70
2023/09/06 06:46:39;;;;;;;9.50;4.60;;;;;;;;;;5023005;28;20053;-70
2023/09/06 06:49:07;;;;;;;4.80;4.20;;;;;;;;;;5024742;28;20705;-71
2023/09/06 06:51:38;;;;;;;6.30;4.00;;;;;;;;;;5035329;28;20059;-70
2023/09/06 06:54:16;;;;;;;5.38;4.15;;;;;;;;;;5032298;28;20037;-71
2023/09/06 06:56:42;;;;;;;3.80;3.40;;;;;;;;;;5025980;28;20049;-70
2023/09/06 06:59:08;;;;;;;7.15;4.15;;;;;;;;;;5020649;28;20119;-71
2023/09/06 07:01:34;;;;;;;4.72;3.80;;;;;;;;;;5028755;28;20041;-71
2023/09/06 07:04:00;;;;;;;5.93;3.80;;;;;;;;;;5024982;28;20037;-70
2023/09/06 07:06:27;;;;;;;5.97;3.47;;;;;;;;;;5020707;28;21128;-69
2023/09/06 07:08:54;;;;;;;6.25;3.53;;;;;;;;;;5031446;28;20048;-70
2023/09/06 07:11:20;;;;;;;19.08;4.05;;;;;;;;;;5022327;28;20124;-69
2023/09/06 07:13:47;;;;;;;3.92;3.40;;;;;;;;;;5032931;28;20041;-68
2023/09/06 07:16:15;;;;;;;4.65;3.53;;;;;;;;;;5028316;28;20417;-70
2023/09/06 07:18:41;;;;;;;3.60;3.05;;;;;;;;;;5022800;28;20459;-70
2023/09/06 07:21:06;;;;;;;6.10;3.50;;;;;;;;;;5031539;28;20100;-69
2023/09/06 07:23:31;;;;;;;7.03;4.00;;;;;;;;;;5019890;28;20502;-70
2023/09/06 07:25:57;;;;;;;4.70;3.58;;;;;;;;;;5020591;28;20516;-72
2023/09/06 07:28:31;;;;;;;4.20;3.28;;;;;;;;;;5039942;28;20111;-70
2023/09/06 07:30:57;;;;;;;4.15;3.28;;;;;;;;;;5031769;28;20053;-70
2023/09/06 07:33:22;;;;;;;3.90;3.53;;;;;;;;;;5031178;28;20053;-70
2023/09/06 07:35:47;;;;;;;5.22;3.65;;;;;;;;;;5036504;28;20041;-70
2023/09/06 07:38:13;;;;;;;4.40;3.50;;;;;;;;;;5026382;28;20054;-70
2023/09/06 07:40:38;;;;;;;5.18;3.45;;;;;;;;;;5027502;28;20032;-70
2023/09/06 07:43:04;;;;;;;4.53;3.63;;;;;;;;;;5019653;28;20098;-70
2023/09/06 07:45:29;;;;;;;7.45;3.63;;;;;;;;;;5019239;28;20106;-71
2023/09/06 07:47:54;;;;;;;5.82;3.63;;;;;;;;;;5024878;28;20457;-71
2023/09/06 07:50:20;;;;;;;4.15;3.70;;;;;;;;;;5028818;28;20045;-72
2023/09/06 07:52:45;;;;;;;3.80;3.40;;;;;;;;;;5023713;28;20112;-72
2023/09/06 07:55:13;;;;;;;3.60;3.30;;;;;;;;;;5021631;28;20052;-71
2023/09/06 07:57:38;;;;;;;5.68;3.30;;;;;;;;;;5020048;28;20041;-73
2023/09/06 08:00:05;;;;;;;7.78;3.35;;;;;;;;;;5029348;28;20410;-70
2023/09/06 08:02:38;;;;;;;5.57;3.65;;;;;;;;;;5028168;28;20215;-72
2023/09/06 08:05:04;;;;;;;6.55;3.80;;;;;;;;;;5017686;28;20041;-71
2023/09/06 08:07:30;;;;;;;5.50;3.60;;;;;;;;;;5019190;28;20056;-71
2023/09/06 08:09:55;;;;;;;4.03;3.63;;;;;;;;;;5027394;28;20061;-73
2023/09/06 08:12:21;;;;;;;5.93;3.28;;;;;;;;;;5018816;28;20490;-71
2023/09/06 08:14:46;;;;;;;4.70;3.55;;;;;;;;;;5025170;28;20049;-72
2023/09/06 08:17:12;;;;;;;3.88;3.30;;;;;;;;;;5033577;28;20038;-71
2023/09/06 08:19:38;;;;;;;4.32;3.50;;;;;;;;;;5026242;28;20293;-71
2023/09/06 08:22:03;;;;;;;4.63;3.55;;;;;;;;;;5037446;28;20075;-71
2023/09/06 08:24:31;;;;;;;5.32;3.85;;;;;;;;;;5019769;28;20156;-71
2023/09/06 08:26:56;;;;;;;4.95;3.50;;;;;;;;;;5024254;28;22712;-72
2023/09/06 08:29:22;;;;;;;3.40;3.10;;;;;;;;;;5020585;28;20293;-71
2023/09/06 08:31:47;;;;;;;6.20;4.00;;;;;;;;;;5019752;28;20065;-71
2023/09/06 08:34:13;;;;;;;4.60;3.45;;;;;;;;;;5026663;28;20045;-71
2023/09/06 08:36:38;;;;;;;4.40;3.10;;;;;;;;;;5020946;28;20072;-72
2023/09/06 08:39:05;;;;;;;5.03;3.53;;;;;;;;;;5023034;28;20041;-71
2023/09/06 08:41:31;;;;;;;5.55;3.33;;;;;;;;;;5027263;28;20045;-71
2023/09/06 08:44:03;;;;;;;4.10;3.53;;;;;;;;;;5024817;28;20517;-71
2023/09/06 08:46:33;;;;;;;4.63;3.78;;;;;;;;;;5026259;28;20141;-71
2023/09/06 08:49:02;;;;;;;4.10;3.05;;;;;;;;;;5025063;28;20049;-71
2023/09/06 08:51:32;;;;;;;4.88;3.85;;;;;;;;;;5021370;28;20053;-72
2023/09/06 08:53:58;;;;;;;3.70;3.28;;;;;;;;;;5021112;28;20052;-71
2023/09/06 08:56:24;;;;;;;5.57;3.42;;;;;;;;;;5019416;28;20176;-71
2023/09/06 08:58:49;;;;;;;5.15;3.75;;;;;;;;;;5024017;28;20040;-71
2023/09/06 09:01:15;;;;;;;5.45;3.22;;;;;;;;;;5022027;28;20533;-71
2023/09/06 09:03:40;;;;;;;4.15;3.55;;;;;;;;;;5027760;28;20037;-70
2023/09/06 09:06:06;;;;;;;4.75;2.97;;;;;;;;;;5023754;28;20099;-71
2023/09/06 09:08:33;;;;;;;5.05;3.42;;;;;;;;;;5019456;28;20815;-71
2023/09/06 09:11:09;;;;;;;5.38;3.72;;;;;;;;;;5025671;28;20041;-71
2023/09/06 09:13:35;;;;;;;5.20;3.75;;;;;;;;;;5019966;28;20038;-72
2023/09/06 09:16:06;;;;;;;4.75;3.25;;;;;;;;;;5025067;28;20056;-72
2023/09/06 09:18:34;;;;;;;;;;;;;;;;;;5022388;28;20060;-72
2023/09/06 09:21:00;;;;;;;4.55;3.08;;;;;;;;;;5038554;28;19960;-71
2023/09/06 09:23:28;;;;;;;3.55;3.00;;;;;;;;;;5020457;28;20052;-71
2023/09/06 09:25:54;;;;;;;13.70;4.13;;;;;;;;;;5024225;28;20053;-72
2023/09/06 09:28:20;;;;;;;4.32;3.90;;;;;;;;;;5034979;28;20123;-72
2023/09/06 09:30:49;;;;;;;4.25;3.70;;;;;;;;;;5030273;28;20045;-72
2023/09/06 09:33:14;;;;;;;4.30;3.53;;;;;;;;;;5030967;28;20114;-71
2023/09/06 09:35:40;;;;;;;3.63;3.20;;;;;;;;;;5018176;28;20044;-71
2023/09/06 09:38:10;;;;;;;4.47;3.63;;;;;;;;;;5032476;28;20156;-71
2023/09/06 09:40:36;;;;;;;7.35;3.33;;;;;;;;;;5020431;28;20048;-72
2023/09/06 09:43:04;;;;;;;4.30;3.20;;;;;;;;;;5019140;28;20076;-71
2023/09/06 09:45:39;;;;;;;5.72;2.55;;;;;;;;;;5025410;28;20402;-71
2023/09/06 09:48:05;;;;;;;3.90;3.00;;;;;;;;;;5027241;28;20137;-71
2023/09/06 09:50:33;;;;;;;5.60;3.30;;;;;;;;;;5031801;28;20048;-72
2023/09/06 09:53:03;;;;;;;3.22;2.92;;;;;;;;;;5016264;28;20053;-72
2023/09/06 09:55:32;;;;;;;6.07;3.30;;;;;;;;;;5032756;28;20094;-71
2023/09/06 09:57:58;;;;;;;6.10;3.30;;;;;;;;;;5016892;28;20119;-71
2023/09/06 10:00:27;;;;;;;3.35;3.05;;;;;;;;;;5019925;28;20041;-72
2023/09/06 10:02:57;;;;;;;3.58;2.90;;;;;;;;;;5018166;28;20060;-71
2023/09/06 10:05:26;;;;;;;3.55;2.70;;;;;;;;;;5024799;28;20053;-71
2023/09/06 10:07:54;;;;;;;3.83;2.88;;;;;;;;;;5035551;28;20239;-73
2023/09/06 10:10:20;;;;;;;4.55;2.88;;;;;;;;;;5020704;28;20041;-72
2023/09/06 10:12:49;;;;;;;2.78;2.58;;;;;;;;;;5028796;28;20725;-72
2023/09/06 10:15:14;;;;;;;3.08;2.60;;;;;;;;;;5027681;28;20052;-73
2023/09/06 10:17:46;;;;;;;4.40;2.67;;;;;;;;;;5024024;28;20053;-71
2023/09/06 10:20:22;;;;;;;3.90;2.50;;;;;;;;;;5029727;28;20053;-72
2023/09/06 10:22:49;;;;;;;3.35;2.65;;;;;;;;;;5016793;28;20104;-72
2023/09/06 10:25:15;;;;;;;2.83;2.50;;;;;;;;;;5016928;28;20057;-72
2023/09/06 10:27:52;;;;;;;4.28;2.60;;;;;;;;;;5019802;28;20106;-73
2023/09/06 10:30:42;;;;;;;7.53;2.88;;;;;;;;;;5024298;28;20112;-73
2023/09/06 10:33:08;;;;;;;5.15;2.40;;;;;;;;;;5026382;28;20588;-73
2023/09/06 10:35:41;;;;;;;4.05;2.70;;;;;;;;;;5036962;28;20049;-72
2023/09/06 10:38:14;;;;;;;5.72;2.55;;;;;;;;;;5026806;28;20073;-73
2023/09/06 10:40:53;;;;;;;3.92;2.65;;;;;;;;;;5023234;28;20045;-72
2023/09/06 10:43:28;;;;;;;3.15;2.78;;;;;;;;;;5008094;28;20041;-73
2023/09/06 10:46:05;;;;;;;7.70;3.00;;;;;;;;;;5033836;28;20057;-72
2023/09/06 10:48:30;;;;;;;3.65;2.65;;;;;;;;;;5021870;28;20051;-73
2023/09/06 10:51:06;;;;;;;3.00;2.60;;;;;;;;;;5038850;28;20041;-71
2023/09/06 10:53:36;;;;;;;4.32;3.30;;;;;;;;;;5039043;28;20084;-71
2023/09/06 10:56:03;;;;;;;4.55;2.72;;;;;;;;;;5041450;28;20575;-71
2023/09/06 10:58:30;;;;;;;3.33;2.83;;;;;;;;;;5032500;28;20045;-71
2023/09/06 11:01:21;;;;;;;9.98;2.90;;;;;;;;;;5027542;28;20045;-74
2023/09/06 11:03:52;;;;;;;4.90;3.20;;;;;;;;;;5022659;28;20049;-70
2023/09/06 11:06:19;;;;;;;3.28;2.97;;;;;;;;;;5037034;28;20152;-70
2023/09/06 11:08:46;;;;;;;3.25;2.95;;;;;;;;;;5021932;28;20069;-72
2023/09/06 11:11:13;;;;;;;3.20;2.90;;;;;;;;;;5039193;28;20126;-73
2023/09/06 11:13:41;;;;;;;3.70;3.08;;;;;;;;;;5019714;28;20073;-73
2023/09/06 11:16:18;;;;;;;5.43;2.78;;;;;;;;;;5041382;28;20524;-72
2023/09/06 11:18:49;;;;;;;3.05;2.60;;;;;;;;;;5034553;28;20052;-73
2023/09/06 11:21:24;;;;;;;3.25;2.70;;;;;;;;;;5021513;28;20075;-73
2023/09/06 11:23:52;;;;;;;3.55;2.53;;;;;;;;;;5036220;28;20041;-73
2023/09/06 11:26:19;;;;;;;4.22;2.80;;;;;;;;;;5026079;28;20594;-72
2023/09/06 11:28:47;;;;;;;4.10;3.63;;;;;;;;;;5031999;28;20053;-73
2023/09/06 11:31:33;;;;;;;4.20;2.95;;;;;;;;;;5036986;28;20664;-73
2023/09/06 11:34:04;;;;;;;2.78;2.58;;;;;;;;;;5023194;28;20470;-73
2023/09/06 11:36:36;;;;;;;3.38;2.40;;;;;;;;;;5027477;28;20053;-73
2023/09/06 11:39:28;;;;;;;3.03;2.58;;;;;;;;;;5033636;28;20127;-73
2023/09/06 11:41:52;;;;;;;3.47;2.83;;;;;;;;;;5026653;28;20055;-73
2023/09/06 11:44:19;;;;;;;3.55;2.60;;;;;;;;;;5035829;28;20065;-72
2023/09/06 11:46:46;;;;;;;3.45;2.25;;;;;;;;;;5035701;28;20061;-73
2023/09/06 11:49:14;;;;;;;3.40;2.78;;;;;;;;;;5038408;28;20052;-73
2023/09/06 11:51:41;;;;;;;2.40;2.20;;;;;;;;;;5037206;28;20152;-72
2023/09/06 11:54:09;;;;;;;2.40;2.20;;;;;;;;;;5035819;28;20198;-73
2023/09/06 11:56:39;;;;;;;3.55;1.67;;;;;;;;;;5036945;28;20052;-73
2023/09/06 11:59:07;;;;;;;2.20;2.00;;;;;;;;;;5019314;28;20037;-73
2023/09/06 12:01:39;;;;;;;2.20;2.00;;;;;;;;;;5023334;28;20501;-73
2023/09/06 12:04:10;;;;;;;1.70;1.60;;;;;;;;;;5035437;28;20038;-73
2023/09/06 12:06:38;;;;;;;2.28;1.98;;;;;;;;;;5036384;28;20063;-73
2023/09/06 12:09:11;;;;;;;2.40;2.20;;;;;;;;;;5021991;28;20172;-73
2023/09/06 12:11:38;;;;;;;1.95;1.80;;;;;;;;;;5020627;28;20049;-72
2023/09/06 12:14:03;;;;;;;3.45;1.77;;;;;;;;;;5038690;28;20065;-73
2023/09/06 12:16:30;;;;;;;5.70;2.08;;;;;;;;;;5026736;28;20104;-73
2023/09/06 12:18:55;;;;;;;3.38;2.33;;;;;;;;;;5034331;28;20044;-71
2023/09/06 12:21:22;;;;;;;3.83;2.28;;;;;;;;;;5035442;28;20055;-72
2023/09/06 12:23:47;;;;;;;2.25;1.70;;;;;;;;;;5037669;28;20087;-71
2023/09/06 12:26:15;;;;;;;4.50;2.17;;;;;;;;;;5023724;28;20540;-71
2023/09/06 12:28:40;;;;;;;2.50;1.92;;;;;;;;;;5019802;28;20044;-72
2023/09/06 12:31:07;;;;;;;2.03;1.80;;;;;;;;;;5035379;28;20049;-72
2023/09/06 12:33:32;;;;;;;2.83;2.20;;;;;;;;;;5034493;28;20033;-70
2023/09/06 12:36:03;;;;;;;2.47;2.05;;;;;;;;;;5021231;28;20080;-71
2023/09/06 12:38:31;;;;;;;2.40;1.97;;;;;;;;;;5026549;28;20107;-72
2023/09/06 12:40:57;;;;;;;2.03;1.92;;;;;;;;;;5032282;28;20300;-72
2023/09/06 12:43:25;;;;;;;2.20;2.00;;;;;;;;;;5028208;28;20049;-72
2023/09/06 12:45:53;;;;;;;2.22;1.95;;;;;;;;;;5028311;28;20053;-72
2023/09/06 12:48:19;;;;;;;3.10;2.20;;;;;;;;;;5020414;28;20053;-72
2023/09/06 12:50:45;;;;;;;2.00;1.80;;;;;;;;;;5019722;28;20239;-72
2023/09/06 12:53:10;;;;;;;2.10;1.90;;;;;;;;;;5038089;28;20501;-72
2023/09/06 12:55:36;;;;;;;2.00;1.77;;;;;;;;;;5033014;28;20048;-72
2023/09/06 12:58:04;;;;;;;1.98;1.77;;;;;;;;;;5023736;28;20409;-72
2023/09/06 13:00:29;;;;;;;3.92;1.90;;;;;;;;;;5035896;28;20095;-72
2023/09/06 13:02:55;;;;;;;3.25;1.83;;;;;;;;;;5025585;28;20986;-73
2023/09/06 13:05:21;;;;;;;3.22;2.30;;;;;;;;;;5020013;28;20140;-72
2023/09/06 13:07:46;;;;;;;2.40;2.00;;;;;;;;;;5020024;28;20564;-71
2023/09/06 13:10:12;;;;;;;2.10;1.90;;;;;;;;;;5020327;28;20049;-72
2023/09/06 13:12:38;;;;;;;1.98;1.67;;;;;;;;;;5025872;28;20057;-72
2023/09/06 13:15:08;;;;;;;2.58;1.92;;;;;;;;;;5037126;28;20143;-72
2023/09/06 13:17:33;;;;;;;4.05;1.83;;;;;;;;;;5020706;28;20781;-72
2023/09/06 13:19:59;;;;;;;2.72;1.85;;;;;;;;;;5023514;28;20049;-73
2023/09/06 13:22:24;;;;;;;1.88;1.77;;;;;;;;;;5020566;28;20106;-70
2023/09/06 13:24:49;;;;;;;2.53;2.33;;;;;;;;;;5033246;28;20053;-72
2023/09/06 13:27:15;;;;;;;2.08;1.88;;;;;;;;;;5034533;28;20398;-72
2023/09/06 13:29:40;;;;;;;1.50;1.40;;;;;;;;;;5020229;28;20045;-73
2023/09/06 13:32:06;;;;;;;2.15;1.70;;;;;;;;;;5020418;28;20042;-72
2023/09/06 13:34:32;;;;;;;1.92;1.55;;;;;;;;;;5021263;28;20057;-73
2023/09/06 13:36:58;;;;;;;2.28;1.92;;;;;;;;;;5020387;28;20051;-72
2023/09/06 13:39:24;;;;;;;5.05;2.00;;;;;;;;;;5020815;28;20053;-73
2023/09/06 13:41:52;;;;;;;2.50;2.00;;;;;;;;;;5020126;28;20132;-73
2023/09/06 13:44:18;;;;;;;4.40;1.90;;;;;;;;;;5020057;28;20041;-73
2023/09/06 13:46:45;;;;;;;1.80;1.70;;;;;;;;;;5019288;28;20052;-73
2023/09/06 13:49:11;;;;;;;1.70;1.60;;;;;;;;;;5036242;28;20064;-72
2023/09/06 13:51:37;;;;;;;2.25;1.88;;;;;;;;;;5021604;28;20049;-73
2023/09/06 13:54:05;;;;;;;3.15;1.58;;;;;;;;;;5023732;28;20041;-73
2023/09/06 13:56:31;;;;;;;3.47;1.98;;;;;;;;;;5023213;28;20053;-73
2023/09/06 13:58:57;;;;;;;2.33;1.73;;;;;;;;;;5016408;28;20133;-74
2023/09/06 14:01:22;;;;;;;2.17;1.90;;;;;;;;;;5019051;28;20048;-73
2023/09/06 14:03:48;;;;;;;4.45;1.83;;;;;;;;;;5020320;28;20045;-72
2023/09/06 14:06:13;;;;;;;2.13;1.70;;;;;;;;;;5019697;28;20060;-74
2023/09/06 14:08:40;;;;;;;3.70;1.75;;;;;;;;;;5019151;28;20042;-73
2023/09/06 14:11:05;;;;;;;2.13;1.83;;;;;;;;;;5021980;28;20046;-74
2023/09/06 14:13:31;;;;;;;2.05;1.83;;;;;;;;;;5024108;28;20583;-70
2023/09/06 14:15:56;;;;;;;1.95;1.75;;;;;;;;;;5021532;28;20137;-71
2023/09/06 14:18:22;;;;;;;2.05;1.80;;;;;;;;;;5021814;28;20060;-70
2023/09/06 14:20:49;;;;;;;2.05;1.50;;;;;;;;;;5033654;28;20054;-72
2023/09/06 14:23:15;;;;;;;1.98;1.77;;;;;;;;;;5021336;28;20088;-71
2023/09/06 14:25:41;;;;;;;1.70;1.58;;;;;;;;;;5019650;28;20079;-70
2023/09/06 14:28:06;;;;;;;2.20;1.40;;;;;;;;;;5021677;28;20099;-71
2023/09/06 14:30:32;;;;;;;2.55;1.50;;;;;;;;;;5035772;28;20057;-71
2023/09/06 14:32:59;;;;;;;1.75;1.50;;;;;;;;;;5019142;28;20041;-72
2023/09/06 14:35:25;;;;;;;2.05;1.85;;;;;;;;;;5022246;28;20060;-72
2023/09/06 14:37:52;;;;;;;2.33;1.50;;;;;;;;;;5024145;28;20041;-71
2023/09/06 14:40:17;;;;;;;2.33;2.13;;;;;;;;;;5028414;28;20057;-72
2023/09/06 14:42:44;;;;;;;1.40;1.30;;;;;;;;;;5033727;28;20049;-73
2023/09/06 14:45:11;;;;;;;1.50;1.40;;;;;;;;;;5027594;28;20076;-74
2023/09/06 14:47:37;;;;;;;1.33;1.23;;;;;;;;;;5032412;28;20041;-73